Time;durP1;ratioP1;P1;durP2;ratioP2;P2;SDS_P1;SDS_P2;PMS_P1;PMS_P2;Temp;Humidity;BMP_temperature;BMP_pressure;BME280_temperature;BME280_humidity;BME280_pressure;Samples;Min_cycle;Max_cycle;Signal;HPM_P1;HPM_P2
2023/12/01 00:02:24;;;;;;;;;0.00;0.00;;;;;13.92;68.66;98700.94;5101272;27;45488;-76
2023/12/01 00:04:49;;;;;;;;;0.00;0.00;;;;;13.36;68.54;98629.94;5082793;27;45216;-76
2023/12/01 00:07:15;;;;;;;;;0.00;0.00;;;;;13.53;68.60;98654.22;5101324;27;45237;-76
2023/12/01 00:09:41;;;;;;;;;0.00;0.00;;;;;13.66;68.74;98670.66;5100930;27;45996;-76
2023/12/01 00:12:07;;;;;;;;;0.00;0.00;;;;;13.40;68.96;98615.91;5082924;27;45328;-76
2023/12/01 00:14:33;;;;;;;;;0.00;0.00;;;;;13.83;68.49;98695.84;5101120;27;45478;-76
2023/12/01 00:16:58;;;;;;;;;0.00;0.00;;;;;13.81;69.21;98695.00;5101277;27;45303;-76
2023/12/01 00:19:24;;;;;;;;;0.00;0.00;;;;;13.47;69.07;98646.41;5100912;27;45907;-76
2023/12/01 00:21:49;;;;;;;;;1.00;1.00;;;;;13.67;69.33;98698.66;5100833;27;45448;-76
2023/12/01 00:24:15;;;;;;;;;1.33;1.00;;;;;13.83;69.49;98741.31;5101288;27;45476;-76
2023/12/01 00:26:41;;;;;;;;;1.00;0.33;;;;;13.77;69.39;98717.78;5100986;27;45398;-76
2023/12/01 00:29:07;;;;;;;;;0.00;0.00;;;;;13.76;68.83;98697.66;5100965;27;45481;-76
2023/12/01 00:31:33;;;;;;;;;0.00;0.00;;;;;13.95;68.45;98718.41;5080866;27;45496;-76
2023/12/01 00:33:59;;;;;;;;;0.00;0.00;;;;;13.51;68.39;98642.88;5100587;27;45449;-76
2023/12/01 00:36:25;;;;;;;;;0.00;0.00;;;;;13.98;68.50;98700.00;5100403;27;45447;-77
2023/12/01 00:38:51;;;;;;;;;0.00;0.00;;;;;13.95;68.28;98690.41;5100040;27;45511;-77
2023/12/01 00:41:16;;;;;;;;;0.00;0.00;;;;;13.03;68.21;98537.69;5100074;27;45243;-87
2023/12/01 00:43:42;;;;;;;;;0.00;0.00;;;;;13.95;68.17;98698.28;5099960;27;45415;-83
2023/12/01 00:46:08;;;;;;;;;0.00;0.00;;;;;13.81;67.85;98687.13;5099716;27;45585;-84
2023/12/01 00:48:33;;;;;;;;;0.00;0.00;;;;;13.92;67.83;98711.44;5100322;27;45964;-76
2023/12/01 00:50:59;;;;;;;;;0.00;0.00;;;;;13.80;67.58;98703.72;5099733;27;45825;-76
2023/12/01 00:53:25;;;;;;;;;0.00;0.00;;;;;12.97;68.02;98577.06;5100038;27;45481;-81
2023/12/01 00:55:50;;;;;;;;;0.00;0.00;;;;;13.88;68.10;98736.84;5100107;27;45453;-77
2023/12/01 00:58:16;;;;;;;;;0.00;0.00;;;;;13.88;68.01;98725.50;5099572;27;45304;-76
2023/12/01 01:00:42;;;;;;;;;0.00;0.00;;;;;13.89;68.03;98722.88;5081563;27;45445;-76
2023/12/01 01:03:07;;;;;;;;;0.00;0.00;;;;;13.91;67.96;98702.72;5099778;27;45489;-76
2023/12/01 01:05:33;;;;;;;;;0.00;0.00;;;;;13.93;67.81;98700.94;5082078;27;45391;-76
2023/12/01 01:07:59;;;;;;;;;0.00;0.00;;;;;13.51;67.69;98621.03;5099929;27;46035;-76
2023/12/01 01:10:24;;;;;;;;;0.00;0.00;;;;;13.52;67.16;98631.47;5100322;27;45608;-76
2023/12/01 01:12:51;;;;;;;;;0.00;0.00;;;;;13.93;67.24;98700.06;5100218;27;45527;-76
2023/12/01 01:15:16;;;;;;;;;0.00;0.00;;;;;13.93;67.01;98681.69;5100484;27;45495;-77
2023/12/01 01:17:42;;;;;;;;;0.00;0.00;;;;;13.95;67.04;98679.03;5099925;27;45494;-76
2023/12/01 01:20:10;;;;;;;;;0.00;0.00;;;;;13.94;66.82;98680.78;5100169;27;45271;-76
2023/12/01 01:22:35;;;;;;;;;0.00;0.00;;;;;13.87;66.76;98672.16;5100207;27;45357;-75
2023/12/01 01:25:01;;;;;;;;;0.00;0.00;;;;;13.71;66.42;98645.25;5099963;27;45493;-76
2023/12/01 01:27:26;;;;;;;;;0.00;0.00;;;;;13.78;66.90;98666.16;5099837;27;45482;-74
2023/12/01 01:29:52;;;;;;;;;0.00;0.00;;;;;13.81;67.09;98642.50;5099959;27;45489;-74
2023/12/01 01:32:17;;;;;;;;;0.00;0.00;;;;;13.80;66.89;98651.25;5100079;27;45432;-74
2023/12/01 01:34:43;;;;;;;;;0.00;0.00;;;;;13.78;67.43;98677.50;5100127;27;45545;-75
2023/12/01 01:37:08;;;;;;;;;0.00;0.00;;;;;13.78;67.86;98680.13;5099826;27;46046;-74
2023/12/01 01:39:37;;;;;;;;;0.00;0.00;;;;;13.36;68.08;98594.97;5081434;27;45389;-73
2023/12/01 01:42:02;;;;;;;;;0.00;0.00;;;;;13.52;67.95;98613.09;5099824;27;45468;-74
2023/12/01 01:44:28;;;;;;;;;0.00;0.00;;;;;13.83;67.91;98661.72;5099828;27;45472;-74
2023/12/01 01:46:54;;;;;;;;;0.00;0.00;;;;;13.59;67.93;98611.28;5099296;27;46420;-74
2023/12/01 01:49:26;;;;;;;;;0.33;0.33;;;;;13.84;68.27;98653.78;5099718;27;45648;-74
2023/12/01 01:51:54;;;;;;;;;0.00;0.00;;;;;13.53;68.09;98601.75;5099634;27;45426;-75
2023/12/01 01:54:23;;;;;;;;;0.00;0.00;;;;;13.79;68.14;98645.13;5099828;27;45296;-75
2023/12/01 01:56:51;;;;;;;;;0.00;0.00;;;;;13.91;68.19;98649.34;5099206;27;45812;-75
2023/12/01 01:59:20;;;;;;;;;0.00;0.00;;;;;13.67;68.37;98604.19;5099516;27;45342;-75
2023/12/01 02:01:46;;;;;;;;;0.33;0.00;;;;;13.92;68.40;98643.19;5099454;27;45391;-75
2023/12/01 02:04:12;;;;;;;;;0.00;0.00;;;;;13.76;68.52;98615.44;5099781;27;45323;-75
2023/12/01 02:06:39;;;;;;;;;0.67;0.00;;;;;12.97;68.34;98501.06;5080919;27;45493;-75
2023/12/01 02:09:06;;;;;;;;;0.00;0.00;;;;;13.71;68.79;98626.00;5099495;27;45379;-75
2023/12/01 02:11:32;;;;;;;;;0.00;0.00;;;;;13.87;69.04;98634.53;5099363;27;45375;-74
2023/12/01 02:14:01;;;;;;;;;0.00;0.00;;;;;13.89;69.02;98638.00;5099481;27;45447;-74
2023/12/01 02:16:26;;;;;;;;;0.00;0.00;;;;;13.89;68.96;98638.88;5099220;27;45372;-75
2023/12/01 02:18:55;;;;;;;;;0.00;0.00;;;;;13.52;68.88;98580.78;5099012;27;46335;-75
2023/12/01 02:21:24;;;;;;;;;0.00;0.00;;;;;13.63;68.76;98601.63;5099230;27;45603;-75
2023/12/01 02:23:55;;;;;;;;;0.00;0.00;;;;;13.85;68.77;98633.69;5113391;27;45426;-75
2023/12/01 02:26:22;;;;;;;;;0.00;0.00;;;;;13.35;68.54;98559.13;5119500;27;46092;-75
2023/12/01 02:28:48;;;;;;;;;0.00;0.00;;;;;13.53;68.89;98606.13;5119500;27;45496;-75
2023/12/01 02:31:14;;;;;;;;;0.00;0.00;;;;;13.62;69.25;98620.88;5101253;27;45471;-75
2023/12/01 02:33:40;;;;;;;;;0.00;0.00;;;;;13.60;69.13;98620.03;5119891;27;45338;-75
2023/12/01 02:36:06;;;;;;;;;0.00;0.00;;;;;13.47;69.15;98587.84;5119430;27;45868;-75
2023/12/01 02:38:33;;;;;;;;;0.00;0.00;;;;;13.73;69.21;98640.84;5119615;27;45540;-74
2023/12/01 02:40:59;;;;;;;;;0.00;0.00;;;;;13.72;69.32;98653.97;5132546;27;45405;-75
2023/12/01 02:43:24;;;;;;;;;0.00;0.00;;;;;13.56;69.13;98624.44;5142934;27;45247;-79
2023/12/01 02:45:50;;;;;;;;;0.33;0.00;;;;;13.58;68.81;98619.19;5134793;27;45304;-75
2023/12/01 02:48:17;;;;;;;;;0.00;0.00;;;;;13.93;68.48;98665.94;5120052;27;45372;-75
2023/12/01 02:50:43;;;;;;;;;0.00;0.00;;;;;13.93;68.54;98671.19;5119974;27;45302;-74
2023/12/01 02:53:09;;;;;;;;;0.00;0.00;;;;;13.56;68.00;98616.56;5119468;27;45487;-74
2023/12/01 02:55:34;;;;;;;;;0.00;0.00;;;;;13.91;67.95;98670.34;5118982;27;46417;-74
2023/12/01 02:58:00;;;;;;;;;0.00;0.00;;;;;13.90;68.35;98672.09;5119216;27;45643;-74
2023/12/01 03:00:26;;;;;;;;;0.00;0.00;;;;;13.61;68.28;98614.75;5119233;27;45342;-74
2023/12/01 03:02:52;;;;;;;;;0.00;0.00;;;;;13.91;68.11;98662.47;5119397;27;45376;-75
2023/12/01 03:05:19;;;;;;;;;0.00;0.00;;;;;13.45;68.19;98556.41;5119210;27;45563;-74
2023/12/01 03:07:45;;;;;;;;;0.00;0.00;;;;;13.72;68.34;98594.47;5119315;27;45525;-74
2023/12/01 03:10:11;;;;;;;;;0.00;0.00;;;;;14.00;68.04;98617.69;5119146;27;45233;-75
2023/12/01 03:12:38;;;;;;;;;0.00;0.00;;;;;13.77;68.40;98590.91;5118926;27;45336;-74
2023/12/01 03:15:07;;;;;;;;;0.00;0.00;;;;;13.76;68.37;98591.81;5118638;27;45531;-74
2023/12/01 03:17:33;;;;;;;;;0.00;0.00;;;;;13.78;69.02;98590.91;5100122;27;45370;-75
2023/12/01 03:19:59;;;;;;;;;0.00;0.00;;;;;13.90;68.92;98605.59;5100138;27;45302;-75
2023/12/01 03:22:25;;;;;;;;;0.00;0.00;;;;;13.84;68.63;98598.69;5118696;27;45259;-74
2023/12/01 03:24:53;;;;;;;;;0.00;0.00;;;;;13.32;68.70;98497.13;5118254;27;45511;-75
2023/12/01 03:27:19;;;;;;;;;0.00;0.00;;;;;13.79;68.41;98566.41;5118567;27;45243;-75
2023/12/01 03:29:45;;;;;;;;;0.00;0.00;;;;;13.69;68.39;98560.44;5100192;27;45386;-75
2023/12/01 03:32:11;;;;;;;;;0.00;0.00;;;;;13.71;68.77;98556.03;5118718;27;45576;-75
2023/12/01 03:34:37;;;;;;;;;0.00;0.00;;;;;13.75;68.38;98569.97;5099586;27;45478;-74
2023/12/01 03:37:03;;;;;;;;;0.00;0.00;;;;;13.81;68.31;98588.25;5118376;27;45243;-74
2023/12/01 03:39:30;;;;;;;;;0.00;0.00;;;;;13.79;68.99;98599.66;5118351;27;45421;-74
2023/12/01 03:41:55;;;;;;;;;0.00;0.00;;;;;13.83;69.02;98612.72;5118436;27;45616;-75
2023/12/01 03:44:21;;;;;;;;;0.00;0.00;;;;;13.76;69.02;98603.19;5118179;27;45500;-75
2023/12/01 03:46:47;;;;;;;;;0.00;0.00;;;;;13.86;69.17;98632.78;5118612;27;45317;-74
2023/12/01 03:49:13;;;;;;;;;0.00;0.00;;;;;13.30;69.05;98530.38;5118633;27;45561;-74
2023/12/01 03:51:39;;;;;;;;;0.00;0.00;;;;;13.56;69.22;98573.75;5118571;27;45571;-75
2023/12/01 03:54:05;;;;;;;;;0.00;0.00;;;;;13.86;69.44;98631.03;5118409;27;45397;-75
2023/12/01 03:56:31;;;;;;;;;0.00;0.00;;;;;13.74;69.32;98607.59;5118136;27;45559;-75
2023/12/01 03:58:56;;;;;;;;;0.00;0.00;;;;;13.70;69.15;98585.75;5118393;27;45404;-75
2023/12/01 04:01:23;;;;;;;;;0.00;0.00;;;;;13.88;69.37;98612.63;5118692;27;45307;-75
2023/12/01 04:03:49;;;;;;;;;0.00;0.00;;;;;13.86;69.02;98609.16;5118211;27;46292;-75
2023/12/01 04:06:15;;;;;;;;;0.00;0.00;;;;;13.85;69.17;98605.69;5117705;27;45543;-75
2023/12/01 04:08:40;;;;;;;;;0.00;0.00;;;;;13.89;69.08;98598.63;5118514;27;45353;-83
2023/12/01 04:11:06;;;;;;;;;0.00;0.00;;;;;13.92;69.18;98604.69;5118377;27;45409;-75
2023/12/01 04:13:32;;;;;;;;;0.00;0.00;;;;;13.77;68.39;98575.16;5118222;27;45460;-75
2023/12/01 04:15:58;;;;;;;;;0.00;0.00;;;;;13.35;68.41;98523.31;5099394;27;45249;-76
2023/12/01 04:18:27;;;;;;;;;0.00;0.00;;;;;13.41;68.40;98543.31;5099596;27;45488;-75
2023/12/01 04:20:54;;;;;;;;;0.00;0.00;;;;;13.70;68.93;98603.25;5118331;27;45555;-75
2023/12/01 04:23:20;;;;;;;;;0.00;0.00;;;;;13.66;68.83;98591.09;5118084;27;46464;-75
2023/12/01 04:25:47;;;;;;;;;0.00;0.00;;;;;13.64;68.84;98580.59;5117706;27;45428;-75
2023/12/01 04:28:13;;;;;;;;;0.00;0.00;;;;;13.64;69.18;98577.13;5099294;27;45386;-75
2023/12/01 04:30:40;;;;;;;;;0.00;0.00;;;;;13.03;69.31;98474.78;5118013;27;45253;-75
2023/12/01 04:33:06;;;;;;;;;0.00;0.00;;;;;13.08;69.36;98472.06;5117750;27;46541;-74
2023/12/01 04:35:33;;;;;;;;;0.00;0.00;;;;;13.40;68.95;98538.97;5117483;27;45409;-75
2023/12/01 04:38:03;;;;;;;;;0.00;0.00;;;;;13.50;68.90;98558.94;5118952;27;45394;-74
2023/12/01 04:40:29;;;;;;;;;0.00;0.00;;;;;13.55;69.21;98551.88;5121362;27;45394;-75
2023/12/01 04:42:56;;;;;;;;;0.00;0.00;;;;;13.52;68.86;98552.78;5121166;27;46268;-75
2023/12/01 04:45:25;;;;;;;;;0.00;0.00;;;;;13.53;69.08;98557.16;5121477;27;45365;-75
2023/12/01 04:47:51;;;;;;;;;0.00;0.00;;;;;13.57;68.70;98570.22;5121618;27;45278;-75
2023/12/01 04:50:20;;;;;;;;;0.00;0.00;;;;;13.50;68.99;98572.06;5121258;27;45428;-75
2023/12/01 04:53:05;;;;;;;;;0.00;0.00;;;;;13.18;68.87;98504.28;5120976;27;46042;-75
2023/12/01 04:55:31;;;;;;;;;0.00;0.00;;;;;13.46;68.88;98562.50;5121172;27;45394;-75
2023/12/01 04:57:56;;;;;;;;;0.00;0.00;;;;;13.22;68.91;98538.28;5120967;27;45469;-74
2023/12/01 05:00:26;;;;;;;;;0.00;0.00;;;;;13.39;69.05;98577.47;5121344;27;45502;-74
2023/12/01 05:03:00;;;;;;;;;0.00;0.00;;;;;13.39;68.58;98579.19;5121011;27;45294;-75
2023/12/01 05:05:28;;;;;;;;;0.00;0.00;;;;;13.37;68.57;98568.75;5120594;27;45760;-74
2023/12/01 05:07:57;;;;;;;;;0.00;0.00;;;;;13.34;68.87;98566.16;5121220;27;45440;-75
2023/12/01 05:10:24;;;;;;;;;0.00;0.00;;;;;13.36;68.82;98593.22;5121359;27;45442;-75
2023/12/01 05:12:54;;;;;;;;;0.00;0.00;;;;;13.25;68.88;98556.63;5120601;27;46778;-74
2023/12/01 05:15:23;;;;;;;;;0.00;0.00;;;;;13.35;68.72;98590.59;5102340;27;45356;-75
2023/12/01 05:17:55;;;;;;;;;0.00;0.00;;;;;12.91;68.66;98506.34;5120882;27;45297;-74
2023/12/01 05:20:23;;;;;;;;;0.00;0.00;;;;;13.36;68.54;98574.88;5121073;27;45360;-75
2023/12/01 05:22:50;;;;;;;;;0.00;0.00;;;;;13.36;68.84;98568.75;5120683;27;45352;-75
2023/12/01 05:25:17;;;;;;;;;0.00;0.00;;;;;13.36;68.54;98555.66;5120473;27;45491;-75
2023/12/01 05:27:44;;;;;;;;;0.00;0.00;;;;;12.84;69.02;98463.63;5120555;27;45413;-74
2023/12/01 05:30:14;;;;;;;;;0.00;0.00;;;;;12.49;68.50;98409.94;5120527;27;45797;-75
2023/12/01 05:32:48;;;;;;;;;0.00;0.00;;;;;13.08;68.70;98500.91;5120329;27;45542;-75
2023/12/01 05:35:15;;;;;;;;;0.00;0.00;;;;;12.82;68.53;98460.19;5120406;27;45346;-74
2023/12/01 05:37:51;;;;;;;;;0.33;0.00;;;;;13.09;68.60;98508.75;5120623;27;45510;-75
2023/12/01 05:40:20;;;;;;;;;0.00;0.00;;;;;13.24;69.31;98515.53;5120431;27;45471;-74
2023/12/01 05:42:47;;;;;;;;;0.00;0.00;;;;;13.36;69.19;98530.28;5119797;27;45320;-75
2023/12/01 05:45:14;;;;;;;;;0.00;0.00;;;;;13.33;69.29;98531.19;5120035;27;45484;-75
2023/12/01 05:47:42;;;;;;;;;0.00;0.00;;;;;13.21;69.55;98515.59;5120149;27;45259;-75
2023/12/01 05:50:21;;;;;;;;;0.00;0.00;;;;;13.21;69.47;98504.22;5119910;27;45543;-75
2023/12/01 05:52:48;;;;;;;;;0.00;0.00;;;;;13.38;69.23;98535.50;5120003;27;45664;-75
2023/12/01 05:55:16;;;;;;;;;0.00;0.00;;;;;13.12;69.06;98489.50;5119881;27;45467;-75
2023/12/01 05:57:43;;;;;;;;;0.00;0.00;;;;;13.11;68.88;98474.63;5120415;27;45339;-74
2023/12/01 06:00:15;;;;;;;;;0.00;0.00;;;;;13.22;69.18;98501.59;5120324;27;45538;-82
2023/12/01 06:02:42;;;;;;;;;0.00;0.00;;;;;13.31;68.97;98532.97;5119846;27;46066;-82
2023/12/01 06:05:08;;;;;;;;;0.00;0.00;;;;;13.10;69.05;98504.38;5119701;27;45998;-82
2023/12/01 06:07:36;;;;;;;;;0.00;0.00;;;;;13.20;68.83;98516.47;5119781;27;45294;-81
2023/12/01 06:10:03;;;;;;;;;0.00;0.00;;;;;13.31;68.87;98524.25;5120111;27;45414;-75
2023/12/01 06:12:29;;;;;;;;;0.00;0.00;;;;;13.37;68.91;98531.13;5120235;27;45550;-83
2023/12/01 06:14:55;;;;;;;;;0.00;0.00;;;;;13.33;68.80;98525.94;5120194;27;46070;-75
2023/12/01 06:17:20;;;;;;;;;0.00;0.00;;;;;13.35;68.86;98527.66;5122844;27;45490;-75
2023/12/01 06:19:46;;;;;;;;;0.00;0.00;;;;;13.23;68.76;98516.44;5141346;27;44803;-74
2023/12/01 06:22:11;;;;;;;;;0.00;0.00;;;;;13.39;68.42;98532.88;5140003;27;45443;-75
2023/12/01 06:24:37;;;;;;;;;0.00;0.00;;;;;13.39;68.57;98521.50;5120849;27;45286;-75
2023/12/01 06:27:04;;;;;;;;;2.00;0.00;;;;;13.37;68.54;98524.16;5120057;27;45298;-75
2023/12/01 06:29:32;;;;;;;;;0.00;0.00;;;;;13.20;68.44;98508.59;5120402;27;45490;-75
2023/12/01 06:31:58;;;;;;;;;0.00;0.00;;;;;13.34;68.93;98529.44;5119845;27;45463;-76
2023/12/01 06:34:23;;;;;;;;;0.00;0.00;;;;;13.37;68.63;98533.75;5119586;27;45480;-75
2023/12/01 06:36:49;;;;;;;;;0.00;0.00;;;;;13.39;69.10;98540.75;5119731;27;45189;-88
2023/12/01 06:39:15;;;;;;;;;0.00;0.00;;;;;12.97;69.02;98463.47;5120088;27;45432;-77
2023/12/01 06:41:41;;;;;;;;;0.00;0.00;;;;;13.43;69.04;98525.81;5119438;27;45363;-82
2023/12/01 06:44:07;;;;;;;;;0.00;0.00;;;;;13.32;68.72;98520.72;5101306;27;45524;-82
2023/12/01 06:46:33;;;;;;;;;0.00;0.00;;;;;13.11;68.41;98478.16;5119375;27;45404;-79
2023/12/01 06:48:59;;;;;;;;;2.00;1.67;;;;;13.48;68.62;98544.97;5119897;27;45301;-82
2023/12/01 06:51:25;;;;;;;;;0.33;0.33;;;;;13.01;68.15;98470.41;5119066;27;46679;-76
2023/12/01 06:53:51;;;;;;;;;0.00;0.00;;;;;13.51;68.28;98556.31;5119845;27;45464;-74
2023/12/01 06:56:17;;;;;;;;;0.33;0.33;;;;;13.44;68.22;98538.03;5119884;27;45446;-74
2023/12/01 06:58:43;;;;;;;;;0.00;0.00;;;;;13.02;68.13;98472.16;5121537;27;45310;-82
2023/12/01 07:01:11;;;;;;;;;0.00;0.00;;;;;13.41;68.15;98522.34;5119540;27;45402;-76
2023/12/01 07:03:37;;;;;;;;;0.00;0.00;;;;;13.23;68.12;98491.97;5120333;27;45284;-75
2023/12/01 07:06:04;;;;;;;;;0.00;0.00;;;;;13.46;68.06;98537.13;5120368;27;45381;-76
2023/12/01 07:08:29;;;;;;;;;0.00;0.00;;;;;13.24;68.33;98499.81;5120393;27;45450;-80
2023/12/01 07:10:55;;;;;;;;;1.00;0.67;;;;;13.06;68.14;98477.34;5083566;27;45712;-77
2023/12/01 07:13:21;;;;;;;;;1.00;0.67;;;;;12.93;68.44;98457.41;5122243;27;45373;-78
2023/12/01 07:15:47;;;;;;;;;1.67;1.00;;;;;13.19;68.54;98506.88;5120229;27;45420;-77
2023/12/01 07:18:13;;;;;;;;;0.00;0.00;;;;;13.37;68.52;98542.53;5119533;27;45423;-77
2023/12/01 07:20:38;;;;;;;;;0.00;0.00;;;;;13.18;68.73;98518.25;5118809;27;45407;-78
2023/12/01 07:23:05;;;;;;;;;0.00;0.00;;;;;13.28;68.44;98555.72;5119201;27;45499;-77
2023/12/01 07:25:31;;;;;;;;;1.00;1.00;;;;;13.19;68.72;98551.47;5119006;27;45330;-77
2023/12/01 07:27:58;;;;;;;;;0.00;0.00;;;;;13.15;68.96;98541.91;5118930;27;45269;-77
2023/12/01 07:30:24;;;;;;;;;0.00;0.00;;;;;13.30;68.19;98583.66;5118637;27;47611;-77
2023/12/01 07:32:52;;;;;;;;;0.00;0.00;;;;;13.28;68.98;98590.66;5118490;27;45508;-77
2023/12/01 07:35:17;;;;;;;;;0.00;0.00;;;;;13.25;68.64;98588.09;5118798;27;45366;-77
2023/12/01 07:37:44;;;;;;;;;3.00;3.00;;;;;13.20;68.32;98602.13;5118899;27;45552;-77
2023/12/01 07:40:11;;;;;;;;;0.00;0.00;;;;;13.12;68.77;98595.22;5118314;27;45335;-77
2023/12/01 07:42:37;;;;;;;;;2.33;2.33;;;;;12.67;69.10;98499.66;5118399;27;45475;-77
2023/12/01 07:45:04;;;;;;;;;0.00;0.00;;;;;13.19;69.07;98582.91;5118907;27;45543;-77
2023/12/01 07:47:30;;;;;;;;;0.00;0.00;;;;;12.83;68.80;98518.69;5119025;27;45239;-77
2023/12/01 07:49:55;;;;;;;;;0.00;0.00;;;;;12.98;68.83;98542.09;5118318;27;45231;-78
2023/12/01 07:52:21;;;;;;;;;0.00;0.00;;;;;13.29;68.57;98587.19;5118448;27;45171;-77
2023/12/01 07:54:47;;;;;;;;;0.00;0.00;;;;;13.30;68.59;98586.28;5118526;27;45400;-77
2023/12/01 07:57:12;;;;;;;;;0.00;0.00;;;;;13.30;68.54;98593.28;5118752;27;45440;-77
2023/12/01 07:59:38;;;;;;;;;0.00;0.00;;;;;12.91;68.52;98538.69;5099657;27;46443;-78
2023/12/01 08:02:04;;;;;;;;;0.00;0.00;;;;;13.35;68.61;98609.84;5118460;27;45337;-78
2023/12/01 08:04:30;;;;;;;;;0.00;0.00;;;;;13.16;68.57;98569.84;5118321;27;45319;-78
2023/12/01 08:06:56;;;;;;;;;0.00;0.00;;;;;13.25;68.78;98589.81;5118224;27;45473;-77
2023/12/01 08:09:25;;;;;;;;;0.00;0.00;;;;;13.39;68.43;98613.28;5117898;27;45332;-77
2023/12/01 08:11:51;;;;;;;;;0.00;0.00;;;;;13.24;68.44;98591.59;5119132;27;45357;-78
2023/12/01 08:14:16;;;;;;;;;3.00;3.00;;;;;13.14;68.67;98574.22;5121764;27;45709;-77
2023/12/01 08:16:42;;;;;;;;;0.00;0.00;;;;;13.00;68.57;98548.19;5122311;27;45311;-77
2023/12/01 08:19:09;;;;;;;;;0.00;0.00;;;;;13.07;68.38;98564.69;5121723;27;46129;-77
2023/12/01 08:21:36;;;;;;;;;1.00;1.00;;;;;12.76;67.79;98531.00;5121992;27;45283;-77
2023/12/01 08:24:04;;;;;;;;;0.00;0.00;;;;;13.28;68.23;98618.63;5122104;27;45289;-77
2023/12/01 08:26:33;;;;;;;;;0.00;0.00;;;;;12.79;68.23;98532.69;5121929;27;45450;-77
2023/12/01 08:28:58;;;;;;;;;3.00;3.00;;;;;12.94;68.16;98549.13;5102919;27;45773;-77
2023/12/01 08:31:24;;;;;;;;;0.00;0.00;;;;;12.89;68.40;98548.31;5102725;27;45432;-78
2023/12/01 08:33:50;;;;;;;;;0.00;0.00;;;;;12.85;68.16;98541.38;5121590;27;45368;-78
2023/12/01 08:36:17;;;;;;;;;0.00;0.00;;;;;13.12;68.09;98579.47;5120780;27;45400;-78
2023/12/01 08:38:45;;;;;;;;;0.33;0.33;;;;;13.05;68.08;98559.50;5120899;27;46236;-78
2023/12/01 08:41:11;;;;;;;;;0.67;0.67;;;;;12.86;67.97;98522.13;5119275;27;45485;-78
2023/12/01 08:43:37;;;;;;;;;0.00;0.00;;;;;13.50;68.06;98609.63;5120990;27;45432;-78
2023/12/01 08:46:02;;;;;;;;;0.00;0.00;;;;;13.57;67.86;98602.56;5121333;27;45456;-77
2023/12/01 08:48:28;;;;;;;;;16.25;15.50;;;;;13.51;67.33;98593.03;5102505;27;46237;-77
2023/12/01 08:50:54;;;;;;;;;1.00;1.00;;;;;13.55;67.62;98592.97;5114840;27;45348;-78
2023/12/01 08:53:22;;;;;;;;;0.00;0.00;;;;;13.71;66.95;98621.63;5100326;27;45496;-78
2023/12/01 08:55:50;;;;;;;;;0.00;0.00;;;;;13.24;67.19;98538.28;5100570;27;45534;-77
2023/12/01 08:58:19;;;;;;;;;0.00;0.00;;;;;13.71;66.87;98621.63;5100790;27;46143;-78
2023/12/01 09:00:45;;;;;;;;;1.33;1.00;;;;;13.62;67.27;98610.38;5099983;27;45434;-78
2023/12/01 09:03:11;;;;;;;;;0.00;0.00;;;;;13.74;66.96;98633.81;5100250;27;45267;-78
2023/12/01 09:05:37;;;;;;;;;0.00;0.00;;;;;13.25;67.32;98545.25;5100857;27;45238;-78
2023/12/01 09:08:05;;;;;;;;;1.33;1.33;;;;;13.17;66.56;98532.25;5100359;27;45877;-77
2023/12/01 09:10:33;;;;;;;;;9.00;9.00;;;;;13.80;67.11;98643.38;5100198;27;45322;-77
2023/12/01 09:12:59;;;;;;;;;7.75;7.75;;;;;13.55;66.96;98612.22;5081998;27;45310;-78
2023/12/01 09:15:25;;;;;;;;;0.00;0.00;;;;;13.46;66.89;98628.94;5100426;27;45363;-78
2023/12/01 09:17:54;;;;;;;;;0.00;0.00;;;;;13.54;66.71;98639.34;5100438;27;45413;-77
2023/12/01 09:20:20;;;;;;;;;0.00;0.00;;;;;13.71;65.90;98670.63;5100125;27;45454;-78
2023/12/01 09:22:46;;;;;;;;;0.00;0.00;;;;;13.47;66.43;98637.69;5100211;27;45231;-78
2023/12/01 09:25:12;;;;;;;;;1.00;0.00;;;;;13.70;66.19;98681.97;5099937;27;45278;-78
2023/12/01 09:27:41;;;;;;;;;0.33;0.33;;;;;13.19;66.36;98600.38;5081760;27;47834;-78
2023/12/01 09:30:13;;;;;;;;;4.00;3.00;;;;;13.67;66.03;98688.16;5100169;27;45481;-77
2023/12/01 09:32:39;;;;;;;;;9.25;8.75;;;;;13.70;66.27;98695.97;5100367;27;45485;-78
2023/12/01 09:35:05;;;;;;;;;2.00;1.00;;;;;13.28;65.88;98616.88;5100347;27;45351;-77
2023/12/01 09:37:31;;;;;;;;;19.50;19.00;;;;;13.74;66.30;98688.94;5099626;27;46081;-78
2023/12/01 09:39:57;;;;;;;;;10.25;9.50;;;;;13.63;66.09;98670.72;5081261;27;45254;-78
2023/12/01 09:42:24;;;;;;;;;14.00;13.00;;;;;13.33;65.63;98616.88;5100123;27;45222;-77
2023/12/01 09:44:55;;;;;;;;;34.50;31.25;;;;;13.75;65.73;98698.56;5100481;27;45409;-78
2023/12/01 09:47:22;;;;;;;;;6.67;5.00;;;;;13.46;66.14;98654.31;5099858;27;46162;-78
2023/12/01 09:49:49;;;;;;;;;1.67;1.00;;;;;13.78;66.08;98695.88;5099928;27;45460;-77
2023/12/01 09:52:15;;;;;;;;;0.00;0.00;;;;;13.04;65.04;98570.00;5110682;27;45474;-78
2023/12/01 09:54:41;;;;;;;;;0.00;0.00;;;;;13.47;65.20;98656.91;5098701;27;45409;-78
2023/12/01 09:57:06;;;;;;;;;2.00;2.00;;;;;13.75;65.20;98705.53;5107725;27;45433;-77
2023/12/01 09:59:38;;;;;;;;;2.00;2.00;;;;;13.81;65.75;98724.72;5099427;27;46027;-77
2023/12/01 10:02:04;;;;;;;;;12.75;11.50;;;;;13.17;65.33;98610.91;5099497;27;45524;-78
2023/12/01 10:04:31;;;;;;;;;4.33;3.67;;;;;13.90;65.44;98721.97;5081215;27;45498;-77
2023/12/01 10:06:59;;;;;;;;;4.00;4.00;;;;;13.79;65.04;98708.13;5098031;27;45564;-78
2023/12/01 10:09:32;;;;;;;;;1.00;0.00;;;;;13.93;65.00;98732.44;5099128;27;45318;-78
2023/12/01 10:12:10;;;;;;;;;3.00;3.00;;;;;13.94;64.85;98735.91;5099270;27;45260;-77
2023/12/01 10:14:43;;;;;;;;;5.00;4.33;;;;;13.79;64.61;98720.38;5099521;27;45520;-77
2023/12/01 10:17:10;;;;;;;;;9.33;8.00;;;;;13.98;65.07;98742.00;5099523;27;46263;-78
2023/12/01 10:19:47;;;;;;;;;9.67;7.00;;;;;13.93;65.46;98737.69;5098955;27;45782;-78
2023/12/01 10:22:16;;;;;;;;;2.00;2.00;;;;;13.50;64.99;98682.22;5099108;27;45319;-78
2023/12/01 10:25:05;;;;;;;;;1.00;0.33;;;;;13.93;64.90;98753.44;5099600;27;45545;-78
2023/12/01 10:27:32;;;;;;;;;0.67;0.67;;;;;13.53;65.83;98674.34;5099009;27;46542;-78
2023/12/01 10:30:14;;;;;;;;;16.25;15.75;;;;;14.02;65.53;98755.06;5098800;27;45267;-78
2023/12/01 10:32:43;;;;;;;;;1.00;1.00;;;;;13.83;65.23;98733.44;5099017;27;45422;-78
2023/12/01 10:35:09;;;;;;;;;1.00;1.00;;;;;13.46;65.00;98673.53;5098030;27;45271;-79
2023/12/01 10:37:35;;;;;;;;;0.00;0.00;;;;;13.92;64.72;98759.56;5098621;27;45556;-78
2023/12/01 10:40:05;;;;;;;;;0.00;0.00;;;;;13.59;64.93;98700.50;5098882;27;45283;-78
2023/12/01 10:42:32;;;;;;;;;0.00;0.00;;;;;13.97;64.26;98759.53;5098985;27;45255;-77
2023/12/01 10:45:00;;;;;;;;;0.00;0.00;;;;;13.91;63.16;98754.34;5099150;27;45275;-77
2023/12/01 10:47:27;;;;;;;;;0.00;0.00;;;;;13.87;63.96;98750.88;5098605;27;45489;-78
2023/12/01 10:49:59;;;;;;;;;2.00;2.00;;;;;13.35;63.59;98671.91;5098716;27;45355;-78
2023/12/01 10:52:25;;;;;;;;;1.00;1.00;;;;;13.87;63.94;98774.50;5098695;27;45461;-77
2023/12/01 10:54:51;;;;;;;;;7.75;7.75;;;;;13.21;63.74;98653.66;5098848;27;45454;-77
2023/12/01 10:57:53;;;;;;;;;0.00;0.00;;;;;13.92;64.00;98766.56;5080119;27;47004;-78
2023/12/01 11:00:30;;;;;;;;;0.00;0.00;;;;;13.92;63.28;98771.81;5035051;28;45571;-78
2023/12/01 11:02:59;;;;;;;;;0.00;0.00;;;;;13.90;63.29;98774.44;5090777;27;45577;-78
2023/12/01 11:05:30;;;;;;;;;3.33;3.33;;;;;13.86;62.97;98780.63;5098284;27;45294;-77
2023/12/01 11:07:59;;;;;;;;;0.00;0.00;;;;;13.86;62.94;98792.91;5098258;27;45490;-78
2023/12/01 11:10:37;;;;;;;;;2.00;2.00;;;;;13.54;62.64;98752.13;5098257;27;45414;-77
2023/12/01 11:13:41;;;;;;;;;0.00;0.00;;;;;13.65;62.42;98765.16;5098419;27;45412;-77
2023/12/01 11:16:08;;;;;;;;;0.33;0.33;;;;;13.53;62.26;98724.19;5098527;27;45232;-78
2023/12/01 11:18:34;;;;;;;;;0.00;0.00;;;;;13.73;61.96;98760.69;5098544;27;46282;-77
2023/12/01 11:20:59;;;;;;;;;0.67;0.67;;;;;13.63;61.61;98754.66;5098144;27;45480;-77
2023/12/01 11:23:25;;;;;;;;;0.00;0.00;;;;;13.84;61.92;98778.91;5098391;27;45265;-78
2023/12/01 11:25:56;;;;;;;;;0.00;0.00;;;;;13.26;61.69;98681.59;5098501;27;45462;-78
2023/12/01 11:31:20;;;;;;;;;0.00;0.00;;;;;13.80;61.26;98764.97;5098096;27;45452;-78
2023/12/01 11:33:56;;;;;;;;;1.00;0.00;;;;;13.69;61.76;98751.13;5098410;27;45164;-78
2023/12/01 11:36:25;;;;;;;;;0.00;0.00;;;;;13.76;61.73;98749.28;5098209;27;45406;-77
2023/12/01 11:39:20;;;;;;;;;0.00;0.00;;;;;13.79;61.73;98749.25;5097918;27;46531;-77